sensor_id;sensor_type;location;lat;lon;timestamp;temperature;humidity
8676;DHT22;4375;52.486;13.424;2023-11-21T00:00:28;8.40;99.90
8676;DHT22;4375;52.486;13.424;2023-11-21T00:02:53;8.40;99.90
8676;DHT22;4375;52.486;13.424;2023-11-21T00:05:19;8.40;99.90
8676;DHT22;4375;52.486;13.424;2023-11-21T00:07:44;8.40;99.90
8676;DHT22;4375;52.486;13.424;2023-11-21T00:10:11;8.30;99.90
8676;DHT22;4375;52.486;13.424;2023-11-21T00:12:37;8.20;99.90
8676;DHT22;4375;52.486;13.424;2023-11-21T00:15:04;8.00;99.90
8676;DHT22;4375;52.486;13.424;2023-11-21T00:17:36;8.00;99.90
8676;DHT22;4375;52.486;13.424;2023-11-21T00:20:02;8.00;99.90
8676;DHT22;4375;52.486;13.424;2023-11-21T00:22:32;7.90;99.90
8676;DHT22;4375;52.486;13.424;2023-11-21T00:24:58;7.90;99.90
8676;DHT22;4375;52.486;13.424;2023-11-21T00:27:23;7.80;99.90
8676;DHT22;4375;52.486;13.424;2023-11-21T00:29:49;7.70;99.90
8676;DHT22;4375;52.486;13.424;2023-11-21T00:32:14;7.70;99.90
8676;DHT22;4375;52.486;13.424;2023-11-21T00:34:40;7.70;99.90
8676;DHT22;4375;52.486;13.424;2023-11-21T00:37:05;7.70;99.90
8676;DHT22;4375;52.486;13.424;2023-11-21T00:39:33;7.70;99.90
8676;DHT22;4375;52.486;13.424;2023-11-21T00:42:00;7.60;99.90
8676;DHT22;4375;52.486;13.424;2023-11-21T00:44:26;7.60;99.90
8676;DHT22;4375;52.486;13.424;2023-11-21T00:46:52;7.60;99.90
8676;DHT22;4375;52.486;13.424;2023-11-21T00:49:18;7.50;99.90
8676;DHT22;4375;52.486;13.424;2023-11-21T00:51:43;7.50;99.90
8676;DHT22;4375;52.486;13.424;2023-11-21T00:54:09;7.40;99.90
8676;DHT22;4375;52.486;13.424;2023-11-21T00:56:34;7.40;99.90
8676;DHT22;4375;52.486;13.424;2023-11-21T00:59:00;7.40;99.90
8676;DHT22;4375;52.486;13.424;2023-11-21T01:01:26;7.40;99.90
8676;DHT22;4375;52.486;13.424;2023-11-21T01:03:51;7.30;99.90
8676;DHT22;4375;52.486;13.424;2023-11-21T01:06:17;7.20;99.90
8676;DHT22;4375;52.486;13.424;2023-11-21T01:08:44;7.20;99.90
8676;DHT22;4375;52.486;13.424;2023-11-21T01:11:10;7.30;99.90
8676;DHT22;4375;52.486;13.424;2023-11-21T01:13:38;7.30;99.90
8676;DHT22;4375;52.486;13.424;2023-11-21T01:16:05;7.30;99.90
8676;DHT22;4375;52.486;13.424;2023-11-21T01:18:34;7.30;99.90
8676;DHT22;4375;52.486;13.424;2023-11-21T01:21:00;7.20;99.90
8676;DHT22;4375;52.486;13.424;2023-11-21T01:23:26;7.10;99.90
8676;DHT22;4375;52.486;13.424;2023-11-21T01:25:52;7.10;99.90
8676;DHT22;4375;52.486;13.424;2023-11-21T01:28:18;7.00;99.90
8676;DHT22;4375;52.486;13.424;2023-11-21T01:30:45;7.10;99.90
8676;DHT22;4375;52.486;13.424;2023-11-21T01:33:11;7.10;99.90
8676;DHT22;4375;52.486;13.424;2023-11-21T01:35:37;7.10;99.90
8676;DHT22;4375;52.486;13.424;2023-11-21T01:38:02;7.00;99.90
8676;DHT22;4375;52.486;13.424;2023-11-21T01:40:29;7.00;99.90
8676;DHT22;4375;52.486;13.424;2023-11-21T01:42:56;6.90;99.90
8676;DHT22;4375;52.486;13.424;2023-11-21T01:45:23;6.80;99.90
8676;DHT22;4375;52.486;13.424;2023-11-21T01:47:50;6.80;99.90
8676;DHT22;4375;52.486;13.424;2023-11-21T01:50:16;6.90;99.90
8676;DHT22;4375;52.486;13.424;2023-11-21T01:52:45;6.90;99.90
8676;DHT22;4375;52.486;13.424;2023-11-21T01:55:11;6.70;99.90
8676;DHT22;4375;52.486;13.424;2023-11-21T01:57:37;6.80;99.90
8676;DHT22;4375;52.486;13.424;2023-11-21T02:00:04;6.70;99.90
8676;DHT22;4375;52.486;13.424;2023-11-21T02:02:44;6.80;99.90
8676;DHT22;4375;52.486;13.424;2023-11-21T02:05:11;6.70;99.90
8676;DHT22;4375;52.486;13.424;2023-11-21T02:07:41;6.70;99.90
8676;DHT22;4375;52.486;13.424;2023-11-21T02:10:08;6.60;99.90
8676;DHT22;4375;52.486;13.424;2023-11-21T02:12:34;6.60;99.90
8676;DHT22;4375;52.486;13.424;2023-11-21T02:15:04;6.60;99.90
8676;DHT22;4375;52.486;13.424;2023-11-21T02:17:35;6.60;99.90
8676;DHT22;4375;52.486;13.424;2023-11-21T02:20:01;6.70;99.90
8676;DHT22;4375;52.486;13.424;2023-11-21T02:22:31;6.60;99.90
8676;DHT22;4375;52.486;13.424;2023-11-21T02:24:57;6.70;99.90
8676;DHT22;4375;52.486;13.424;2023-11-21T02:27:24;6.60;99.90
8676;DHT22;4375;52.486;13.424;2023-11-21T02:29:50;6.60;99.90
8676;DHT22;4375;52.486;13.424;2023-11-21T02:32:15;6.60;99.90
8676;DHT22;4375;52.486;13.424;2023-11-21T02:34:44;6.50;99.90
8676;DHT22;4375;52.486;13.424;2023-11-21T02:37:10;6.60;99.90
8676;DHT22;4375;52.486;13.424;2023-11-21T02:39:35;6.50;99.90
8676;DHT22;4375;52.486;13.424;2023-11-21T02:42:01;6.60;99.90
8676;DHT22;4375;52.486;13.424;2023-11-21T02:44:27;6.50;99.90
8676;DHT22;4375;52.486;13.424;2023-11-21T02:46:52;6.50;99.90
8676;DHT22;4375;52.486;13.424;2023-11-21T02:49:18;6.40;99.90
8676;DHT22;4375;52.486;13.424;2023-11-21T02:51:44;6.50;99.90
8676;DHT22;4375;52.486;13.424;2023-11-21T02:54:09;6.50;99.90
8676;DHT22;4375;52.486;13.424;2023-11-21T02:56:35;6.50;99.90
8676;DHT22;4375;52.486;13.424;2023-11-21T02:59:01;6.40;99.90
8676;DHT22;4375;52.486;13.424;2023-11-21T03:01:27;6.40;99.90
8676;DHT22;4375;52.486;13.424;2023-11-21T03:03:53;6.40;99.90
8676;DHT22;4375;52.486;13.424;2023-11-21T03:06:21;6.40;99.90
8676;DHT22;4375;52.486;13.424;2023-11-21T03:08:47;6.30;99.90
8676;DHT22;4375;52.486;13.424;2023-11-21T03:11:14;6.30;99.90
8676;DHT22;4375;52.486;13.424;2023-11-21T03:13:40;6.30;99.90
8676;DHT22;4375;52.486;13.424;2023-11-21T03:16:10;6.30;99.90
8676;DHT22;4375;52.486;13.424;2023-11-21T03:18:39;6.30;99.90
8676;DHT22;4375;52.486;13.424;2023-11-21T03:21:05;6.30;99.90
8676;DHT22;4375;52.486;13.424;2023-11-21T03:23:31;6.30;99.90
8676;DHT22;4375;52.486;13.424;2023-11-21T03:25:57;6.40;99.90
8676;DHT22;4375;52.486;13.424;2023-11-21T03:28:23;6.40;99.90
8676;DHT22;4375;52.486;13.424;2023-11-21T03:30:49;6.40;99.90
8676;DHT22;4375;52.486;13.424;2023-11-21T03:33:15;6.40;99.90
8676;DHT22;4375;52.486;13.424;2023-11-21T03:35:40;6.30;99.90
8676;DHT22;4375;52.486;13.424;2023-11-21T03:38:07;6.30;99.90
8676;DHT22;4375;52.486;13.424;2023-11-21T03:40:33;6.30;99.90
8676;DHT22;4375;52.486;13.424;2023-11-21T03:42:58;6.30;99.90
8676;DHT22;4375;52.486;13.424;2023-11-21T03:45:24;6.30;99.90
8676;DHT22;4375;52.486;13.424;2023-11-21T03:47:50;6.30;99.90
8676;DHT22;4375;52.486;13.424;2023-11-21T03:50:15;6.30;99.90
8676;DHT22;4375;52.486;13.424;2023-11-21T03:52:41;6.30;99.90
8676;DHT22;4375;52.486;13.424;2023-11-21T03:55:07;6.30;99.90
8676;DHT22;4375;52.486;13.424;2023-11-21T03:57:33;6.30;99.90
8676;DHT22;4375;52.486;13.424;2023-11-21T03:59:58;6.20;99.90
8676;DHT22;4375;52.486;13.424;2023-11-21T04:02:24;6.20;99.90
8676;DHT22;4375;52.486;13.424;2023-11-21T04:04:51;6.20;99.90
8676;DHT22;4375;52.486;13.424;2023-11-21T04:07:17;6.20;99.90
8676;DHT22;4375;52.486;13.424;2023-11-21T04:09:43;6.20;99.90
8676;DHT22;4375;52.486;13.424;2023-11-21T04:12:08;6.20;99.90
8676;DHT22;4375;52.486;13.424;2023-11-21T04:14:35;6.30;99.90
8676;DHT22;4375;52.486;13.424;2023-11-21T04:17:00;6.20;99.90
8676;DHT22;4375;52.486;13.424;2023-11-21T04:19:26;6.20;99.90
8676;DHT22;4375;52.486;13.424;2023-11-21T04:21:52;6.20;99.90
8676;DHT22;4375;52.486;13.424;2023-11-21T04:24:17;6.20;99.90
8676;DHT22;4375;52.486;13.424;2023-11-21T04:26:44;6.20;99.90
8676;DHT22;4375;52.486;13.424;2023-11-21T04:29:10;6.10;99.90
8676;DHT22;4375;52.486;13.424;2023-11-21T04:31:35;6.10;99.90
8676;DHT22;4375;52.486;13.424;2023-11-21T04:34:01;6.10;99.90
8676;DHT22;4375;52.486;13.424;2023-11-21T04:36:29;6.00;99.90
8676;DHT22;4375;52.486;13.424;2023-11-21T04:38:56;6.00;99.90
8676;DHT22;4375;52.486;13.424;2023-11-21T04:41:22;6.00;99.90
8676;DHT22;4375;52.486;13.424;2023-11-21T04:43:47;6.00;99.90
8676;DHT22;4375;52.486;13.424;2023-11-21T04:46:14;6.00;99.90
8676;DHT22;4375;52.486;13.424;2023-11-21T04:48:40;6.10;99.90
8676;DHT22;4375;52.486;13.424;2023-11-21T04:51:05;6.10;99.90
8676;DHT22;4375;52.486;13.424;2023-11-21T04:53:32;6.10;99.90
8676;DHT22;4375;52.486;13.424;2023-11-21T04:55:57;6.10;99.90
8676;DHT22;4375;52.486;13.424;2023-11-21T04:58:23;6.10;99.90
8676;DHT22;4375;52.486;13.424;2023-11-21T05:00:49;6.10;99.90
8676;DHT22;4375;52.486;13.424;2023-11-21T05:03:15;6.10;99.90
8676;DHT22;4375;52.486;13.424;2023-11-21T05:05:40;6.10;99.90
8676;DHT22;4375;52.486;13.424;2023-11-21T05:08:06;6.10;99.90
8676;DHT22;4375;52.486;13.424;2023-11-21T05:10:32;6.10;99.90
8676;DHT22;4375;52.486;13.424;2023-11-21T05:12:57;6.10;99.90
8676;DHT22;4375;52.486;13.424;2023-11-21T05:15:23;6.10;99.90
8676;DHT22;4375;52.486;13.424;2023-11-21T05:17:50;6.00;99.90
8676;DHT22;4375;52.486;13.424;2023-11-21T05:20:17;6.00;99.90
8676;DHT22;4375;52.486;13.424;2023-11-21T05:22:48;6.00;99.90
8676;DHT22;4375;52.486;13.424;2023-11-21T05:25:14;6.10;99.90
8676;DHT22;4375;52.486;13.424;2023-11-21T05:27:40;6.00;99.90
8676;DHT22;4375;52.486;13.424;2023-11-21T05:30:06;6.00;99.90
8676;DHT22;4375;52.486;13.424;2023-11-21T05:32:35;6.00;99.90
8676;DHT22;4375;52.486;13.424;2023-11-21T05:35:01;6.00;99.90
8676;DHT22;4375;52.486;13.424;2023-11-21T05:37:27;5.90;99.90
8676;DHT22;4375;52.486;13.424;2023-11-21T05:39:56;5.90;99.90
8676;DHT22;4375;52.486;13.424;2023-11-21T05:42:22;5.90;99.90
8676;DHT22;4375;52.486;13.424;2023-11-21T05:44:48;6.00;99.90
8676;DHT22;4375;52.486;13.424;2023-11-21T05:47:15;5.90;99.90
8676;DHT22;4375;52.486;13.424;2023-11-21T05:49:40;5.90;99.90
8676;DHT22;4375;52.486;13.424;2023-11-21T05:52:06;5.90;99.90
8676;DHT22;4375;52.486;13.424;2023-11-21T05:54:32;5.90;99.90
8676;DHT22;4375;52.486;13.424;2023-11-21T05:56:58;5.90;99.90
8676;DHT22;4375;52.486;13.424;2023-11-21T05:59:24;5.90;99.90
8676;DHT22;4375;52.486;13.424;2023-11-21T06:01:50;5.90;99.90
8676;DHT22;4375;52.486;13.424;2023-11-21T06:04:15;5.90;99.90
8676;DHT22;4375;52.486;13.424;2023-11-21T06:06:41;5.90;99.90
8676;DHT22;4375;52.486;13.424;2023-11-21T06:09:07;5.80;99.90
8676;DHT22;4375;52.486;13.424;2023-11-21T06:11:35;5.90;99.90
8676;DHT22;4375;52.486;13.424;2023-11-21T06:14:00;5.90;99.90
8676;DHT22;4375;52.486;13.424;2023-11-21T06:16:26;5.90;99.90
8676;DHT22;4375;52.486;13.424;2023-11-21T06:18:53;5.80;99.90
8676;DHT22;4375;52.486;13.424;2023-11-21T06:21:18;5.80;99.90
8676;DHT22;4375;52.486;13.424;2023-11-21T06:23:44;5.70;99.90
8676;DHT22;4375;52.486;13.424;2023-11-21T06:26:10;5.80;99.90
8676;DHT22;4375;52.486;13.424;2023-11-21T06:28:35;5.80;99.90
8676;DHT22;4375;52.486;13.424;2023-11-21T06:31:02;5.80;99.90
8676;DHT22;4375;52.486;13.424;2023-11-21T06:33:31;5.80;99.90
8676;DHT22;4375;52.486;13.424;2023-11-21T06:35:57;5.80;99.90
8676;DHT22;4375;52.486;13.424;2023-11-21T06:38:23;5.70;99.90
8676;DHT22;4375;52.486;13.424;2023-11-21T06:40:48;5.70;99.90
8676;DHT22;4375;52.486;13.424;2023-11-21T06:43:14;5.70;99.90
8676;DHT22;4375;52.486;13.424;2023-11-21T06:45:40;5.80;99.90
8676;DHT22;4375;52.486;13.424;2023-11-21T06:48:06;5.70;99.90
8676;DHT22;4375;52.486;13.424;2023-11-21T06:50:32;5.80;99.90
8676;DHT22;4375;52.486;13.424;2023-11-21T06:52:58;5.80;99.90
8676;DHT22;4375;52.486;13.424;2023-11-21T06:55:23;5.70;99.90
8676;DHT22;4375;52.486;13.424;2023-11-21T06:57:49;5.80;99.90
8676;DHT22;4375;52.486;13.424;2023-11-21T07:00:17;5.80;99.90
8676;DHT22;4375;52.486;13.424;2023-11-21T07:02:44;5.60;99.90
8676;DHT22;4375;52.486;13.424;2023-11-21T07:05:10;5.60;99.90
8676;DHT22;4375;52.486;13.424;2023-11-21T07:07:36;5.70;99.90
8676;DHT22;4375;52.486;13.424;2023-11-21T07:10:03;5.70;99.90
8676;DHT22;4375;52.486;13.424;2023-11-21T07:12:32;5.70;99.90
8676;DHT22;4375;52.486;13.424;2023-11-21T07:14:58;5.70;99.90
8676;DHT22;4375;52.486;13.424;2023-11-21T07:17:23;5.70;99.90
8676;DHT22;4375;52.486;13.424;2023-11-21T07:19:49;5.70;99.90
8676;DHT22;4375;52.486;13.424;2023-11-21T07:22:16;5.70;99.90
8676;DHT22;4375;52.486;13.424;2023-11-21T07:24:48;5.70;99.90
8676;DHT22;4375;52.486;13.424;2023-11-21T07:27:16;5.70;99.90
8676;DHT22;4375;52.486;13.424;2023-11-21T07:29:41;5.60;99.90
8676;DHT22;4375;52.486;13.424;2023-11-21T07:32:07;5.70;99.90
8676;DHT22;4375;52.486;13.424;2023-11-21T07:34:35;5.60;99.90
8676;DHT22;4375;52.486;13.424;2023-11-21T07:37:00;5.70;99.90
8676;DHT22;4375;52.486;13.424;2023-11-21T07:39:27;5.60;99.90
8676;DHT22;4375;52.486;13.424;2023-11-21T07:41:52;5.70;99.90
8676;DHT22;4375;52.486;13.424;2023-11-21T07:44:18;5.60;99.90
8676;DHT22;4375;52.486;13.424;2023-11-21T07:46:45;5.70;99.90
8676;DHT22;4375;52.486;13.424;2023-11-21T07:49:11;5.70;99.90
8676;DHT22;4375;52.486;13.424;2023-11-21T07:51:37;5.70;99.90
8676;DHT22;4375;52.486;13.424;2023-11-21T07:54:02;5.60;99.90
8676;DHT22;4375;52.486;13.424;2023-11-21T07:56:28;5.70;99.90
8676;DHT22;4375;52.486;13.424;2023-11-21T07:58:53;5.60;99.90
8676;DHT22;4375;52.486;13.424;2023-11-21T08:01:19;5.60;99.90
8676;DHT22;4375;52.486;13.424;2023-11-21T08:03:45;5.60;99.90
8676;DHT22;4375;52.486;13.424;2023-11-21T08:06:10;5.50;99.90
8676;DHT22;4375;52.486;13.424;2023-11-21T08:08:37;5.40;99.90
8676;DHT22;4375;52.486;13.424;2023-11-21T08:11:03;5.50;99.90
8676;DHT22;4375;52.486;13.424;2023-11-21T08:13:29;5.60;99.90
8676;DHT22;4375;52.486;13.424;2023-11-21T08:15:57;5.70;99.90
8676;DHT22;4375;52.486;13.424;2023-11-21T08:18:27;5.60;99.90
8676;DHT22;4375;52.486;13.424;2023-11-21T08:20:55;5.70;99.90
8676;DHT22;4375;52.486;13.424;2023-11-21T08:23:21;5.60;99.90
8676;DHT22;4375;52.486;13.424;2023-11-21T08:25:51;5.50;99.90
8676;DHT22;4375;52.486;13.424;2023-11-21T08:28:17;5.50;99.90
8676;DHT22;4375;52.486;13.424;2023-11-21T08:30:43;5.60;99.90
8676;DHT22;4375;52.486;13.424;2023-11-21T08:33:09;5.60;99.90
8676;DHT22;4375;52.486;13.424;2023-11-21T08:35:36;5.60;99.90
8676;DHT22;4375;52.486;13.424;2023-11-21T08:38:03;5.50;99.90
8676;DHT22;4375;52.486;13.424;2023-11-21T08:40:29;5.50;99.90
8676;DHT22;4375;52.486;13.424;2023-11-21T08:42:55;5.50;99.90
8676;DHT22;4375;52.486;13.424;2023-11-21T08:45:21;5.50;99.90
8676;DHT22;4375;52.486;13.424;2023-11-21T08:47:48;5.50;99.90
8676;DHT22;4375;52.486;13.424;2023-11-21T08:50:13;5.50;99.90
8676;DHT22;4375;52.486;13.424;2023-11-21T08:52:40;5.50;99.90
8676;DHT22;4375;52.486;13.424;2023-11-21T08:55:06;5.60;99.90
8676;DHT22;4375;52.486;13.424;2023-11-21T08:57:38;5.60;99.90
8676;DHT22;4375;52.486;13.424;2023-11-21T09:00:05;5.60;99.90
8676;DHT22;4375;52.486;13.424;2023-11-21T09:02:37;5.60;99.90
8676;DHT22;4375;52.486;13.424;2023-11-21T09:05:04;5.60;99.90
8676;DHT22;4375;52.486;13.424;2023-11-21T09:07:29;5.60;99.90
8676;DHT22;4375;52.486;13.424;2023-11-21T09:09:56;5.70;99.90
8676;DHT22;4375;52.486;13.424;2023-11-21T09:12:21;5.60;99.90
8676;DHT22;4375;52.486;13.424;2023-11-21T09:14:47;5.60;99.90
8676;DHT22;4375;52.486;13.424;2023-11-21T09:17:13;5.70;99.90
8676;DHT22;4375;52.486;13.424;2023-11-21T09:19:40;5.60;99.90
8676;DHT22;4375;52.486;13.424;2023-11-21T09:22:06;5.60;99.90
8676;DHT22;4375;52.486;13.424;2023-11-21T09:24:32;5.50;99.90
8676;DHT22;4375;52.486;13.424;2023-11-21T09:26:58;5.50;99.90
8676;DHT22;4375;52.486;13.424;2023-11-21T09:29:28;5.60;99.90
8676;DHT22;4375;52.486;13.424;2023-11-21T09:31:54;5.50;99.90
8676;DHT22;4375;52.486;13.424;2023-11-21T09:34:21;5.60;99.90
8676;DHT22;4375;52.486;13.424;2023-11-21T09:36:47;5.60;99.90
8676;DHT22;4375;52.486;13.424;2023-11-21T09:39:13;5.60;99.90
8676;DHT22;4375;52.486;13.424;2023-11-21T09:41:50;5.50;99.90
8676;DHT22;4375;52.486;13.424;2023-11-21T09:44:26;5.60;99.90
8676;DHT22;4375;52.486;13.424;2023-11-21T09:46:57;5.50;99.90
8676;DHT22;4375;52.486;13.424;2023-11-21T09:49:26;5.50;99.90
8676;DHT22;4375;52.486;13.424;2023-11-21T09:51:55;5.60;99.90
8676;DHT22;4375;52.486;13.424;2023-11-21T09:54:24;5.40;99.90
8676;DHT22;4375;52.486;13.424;2023-11-21T09:56:50;5.50;99.90
8676;DHT22;4375;52.486;13.424;2023-11-21T09:59:16;5.70;99.90
8676;DHT22;4375;52.486;13.424;2023-11-21T10:01:44;5.70;99.90
8676;DHT22;4375;52.486;13.424;2023-11-21T10:04:12;5.70;99.90
8676;DHT22;4375;52.486;13.424;2023-11-21T10:06:41;5.60;99.90
8676;DHT22;4375;52.486;13.424;2023-11-21T10:09:14;5.60;99.90
8676;DHT22;4375;52.486;13.424;2023-11-21T10:11:41;5.60;99.90
8676;DHT22;4375;52.486;13.424;2023-11-21T10:14:11;5.60;99.90
8676;DHT22;4375;52.486;13.424;2023-11-21T10:16:41;5.70;99.90
8676;DHT22;4375;52.486;13.424;2023-11-21T10:19:10;5.70;99.90
8676;DHT22;4375;52.486;13.424;2023-11-21T10:21:37;5.60;99.90
8676;DHT22;4375;52.486;13.424;2023-11-21T10:24:04;5.60;99.90
8676;DHT22;4375;52.486;13.424;2023-11-21T10:26:30;5.50;99.90
8676;DHT22;4375;52.486;13.424;2023-11-21T10:29:02;5.50;99.90
8676;DHT22;4375;52.486;13.424;2023-11-21T10:31:33;5.60;99.90
8676;DHT22;4375;52.486;13.424;2023-11-21T10:34:18;5.50;99.90
8676;DHT22;4375;52.486;13.424;2023-11-21T10:36:45;5.50;99.90
8676;DHT22;4375;52.486;13.424;2023-11-21T10:39:18;5.30;99.90
8676;DHT22;4375;52.486;13.424;2023-11-21T10:41:48;5.30;99.90
8676;DHT22;4375;52.486;13.424;2023-11-21T10:44:14;5.40;99.90
8676;DHT22;4375;52.486;13.424;2023-11-21T10:46:49;5.30;99.90
8676;DHT22;4375;52.486;13.424;2023-11-21T10:49:20;5.20;99.90
8676;DHT22;4375;52.486;13.424;2023-11-21T10:51:45;5.20;99.90
8676;DHT22;4375;52.486;13.424;2023-11-21T10:54:11;5.20;99.90
8676;DHT22;4375;52.486;13.424;2023-11-21T10:56:39;5.10;99.90
8676;DHT22;4375;52.486;13.424;2023-11-21T10:59:10;5.10;99.90
8676;DHT22;4375;52.486;13.424;2023-11-21T11:01:43;5.10;99.90
8676;DHT22;4375;52.486;13.424;2023-11-21T11:04:09;5.20;99.90
8676;DHT22;4375;52.486;13.424;2023-11-21T11:06:42;5.10;99.90
8676;DHT22;4375;52.486;13.424;2023-11-21T11:09:11;5.10;99.90
8676;DHT22;4375;52.486;13.424;2023-11-21T11:11:42;4.90;99.90
8676;DHT22;4375;52.486;13.424;2023-11-21T11:14:11;5.00;99.90
8676;DHT22;4375;52.486;13.424;2023-11-21T11:16:40;5.10;99.90
8676;DHT22;4375;52.486;13.424;2023-11-21T11:19:09;5.10;99.90
8676;DHT22;4375;52.486;13.424;2023-11-21T11:35:10;5.30;99.90
8676;DHT22;4375;52.486;13.424;2023-11-21T11:37:40;5.30;99.90
8676;DHT22;4375;52.486;13.424;2023-11-21T11:40:11;5.30;99.90
8676;DHT22;4375;52.486;13.424;2023-11-21T11:42:37;5.20;99.90
8676;DHT22;4375;52.486;13.424;2023-11-21T11:45:17;5.30;99.90
8676;DHT22;4375;52.486;13.424;2023-11-21T11:47:43;5.30;99.90
8676;DHT22;4375;52.486;13.424;2023-11-21T11:50:11;5.40;99.90
8676;DHT22;4375;52.486;13.424;2023-11-21T11:52:49;5.20;99.90
8676;DHT22;4375;52.486;13.424;2023-11-21T11:55:21;5.10;99.90
8676;DHT22;4375;52.486;13.424;2023-11-21T11:57:52;5.00;99.90
8676;DHT22;4375;52.486;13.424;2023-11-21T12:00:23;5.00;99.90
8676;DHT22;4375;52.486;13.424;2023-11-21T12:03:01;5.00;99.90
8676;DHT22;4375;52.486;13.424;2023-11-21T12:05:32;5.00;99.90
8676;DHT22;4375;52.486;13.424;2023-11-21T12:08:00;4.90;99.90
8676;DHT22;4375;52.486;13.424;2023-11-21T12:10:32;4.80;99.90
8676;DHT22;4375;52.486;13.424;2023-11-21T12:13:09;4.80;99.90
8676;DHT22;4375;52.486;13.424;2023-11-21T12:15:36;4.90;99.90
8676;DHT22;4375;52.486;13.424;2023-11-21T12:18:04;4.80;99.90
8676;DHT22;4375;52.486;13.424;2023-11-21T12:20:31;4.80;99.90
8676;DHT22;4375;52.486;13.424;2023-11-21T12:22:58;4.80;99.90
8676;DHT22;4375;52.486;13.424;2023-11-21T12:25:26;4.70;99.90
8676;DHT22;4375;52.486;13.424;2023-11-21T12:27:58;4.80;99.90
8676;DHT22;4375;52.486;13.424;2023-11-21T12:30:27;4.90;99.90
8676;DHT22;4375;52.486;13.424;2023-11-21T12:33:02;5.00;99.90
8676;DHT22;4375;52.486;13.424;2023-11-21T12:35:30;5.10;99.90
8676;DHT22;4375;52.486;13.424;2023-11-21T12:37:56;5.00;99.90
8676;DHT22;4375;52.486;13.424;2023-11-21T12:40:26;4.80;99.90
8676;DHT22;4375;52.486;13.424;2023-11-21T12:42:53;4.80;99.90
8676;DHT22;4375;52.486;13.424;2023-11-21T12:45:24;4.80;99.90
8676;DHT22;4375;52.486;13.424;2023-11-21T12:48:02;4.80;99.90
8676;DHT22;4375;52.486;13.424;2023-11-21T12:50:30;4.80;99.90
8676;DHT22;4375;52.486;13.424;2023-11-21T12:53:04;4.80;99.90
8676;DHT22;4375;52.486;13.424;2023-11-21T12:55:32;4.70;99.90
8676;DHT22;4375;52.486;13.424;2023-11-21T12:57:58;4.80;99.90
8676;DHT22;4375;52.486;13.424;2023-11-21T13:03:04;4.80;99.90
8676;DHT22;4375;52.486;13.424;2023-11-21T13:05:34;4.70;99.90
8676;DHT22;4375;52.486;13.424;2023-11-21T13:08:04;4.80;99.90
8676;DHT22;4375;52.486;13.424;2023-11-21T13:10:34;4.80;99.90
8676;DHT22;4375;52.486;13.424;2023-11-21T13:13:03;4.80;99.90
8676;DHT22;4375;52.486;13.424;2023-11-21T13:15:48;4.80;99.90
8676;DHT22;4375;52.486;13.424;2023-11-21T13:18:13;4.80;99.90
8676;DHT22;4375;52.486;13.424;2023-11-21T13:20:40;4.80;99.90
8676;DHT22;4375;52.486;13.424;2023-11-21T13:23:10;4.80;99.90
8676;DHT22;4375;52.486;13.424;2023-11-21T13:25:39;4.80;99.90
8676;DHT22;4375;52.486;13.424;2023-11-21T13:28:08;5.00;99.90
8676;DHT22;4375;52.486;13.424;2023-11-21T13:30:38;4.90;99.90
8676;DHT22;4375;52.486;13.424;2023-11-21T13:33:06;4.80;99.90
8676;DHT22;4375;52.486;13.424;2023-11-21T13:35:34;4.70;99.90
8676;DHT22;4375;52.486;13.424;2023-11-21T13:38:16;4.80;99.90
8676;DHT22;4375;52.486;13.424;2023-11-21T13:40:48;4.70;99.90
8676;DHT22;4375;52.486;13.424;2023-11-21T13:43:16;4.70;99.90
8676;DHT22;4375;52.486;13.424;2023-11-21T13:45:44;4.70;99.90
8676;DHT22;4375;52.486;13.424;2023-11-21T13:48:12;4.60;99.90
8676;DHT22;4375;52.486;13.424;2023-11-21T13:50:44;4.60;99.90
8676;DHT22;4375;52.486;13.424;2023-11-21T13:53:20;4.60;99.90
8676;DHT22;4375;52.486;13.424;2023-11-21T13:55:50;4.50;99.90
8676;DHT22;4375;52.486;13.424;2023-11-21T13:58:17;4.50;99.90
8676;DHT22;4375;52.486;13.424;2023-11-21T14:00:47;4.50;99.90
8676;DHT22;4375;52.486;13.424;2023-11-21T14:03:27;4.40;99.90
8676;DHT22;4375;52.486;13.424;2023-11-21T14:06:08;4.40;99.90
8676;DHT22;4375;52.486;13.424;2023-11-21T14:08:40;4.40;99.90
8676;DHT22;4375;52.486;13.424;2023-11-21T14:11:07;4.40;99.90
8676;DHT22;4375;52.486;13.424;2023-11-21T14:13:32;4.40;99.90
8676;DHT22;4375;52.486;13.424;2023-11-21T14:15:59;4.30;99.90
8676;DHT22;4375;52.486;13.424;2023-11-21T14:18:27;4.30;99.90
8676;DHT22;4375;52.486;13.424;2023-11-21T14:21:01;4.20;99.90
8676;DHT22;4375;52.486;13.424;2023-11-21T14:23:27;4.10;99.90
8676;DHT22;4375;52.486;13.424;2023-11-21T14:25:53;4.00;99.90
8676;DHT22;4375;52.486;13.424;2023-11-21T14:28:19;4.00;99.90
8676;DHT22;4375;52.486;13.424;2023-11-21T14:30:46;4.10;99.90
8676;DHT22;4375;52.486;13.424;2023-11-21T14:33:12;4.00;99.90
8676;DHT22;4375;52.486;13.424;2023-11-21T14:35:38;4.00;99.90
8676;DHT22;4375;52.486;13.424;2023-11-21T14:38:05;3.90;99.90
8676;DHT22;4375;52.486;13.424;2023-11-21T14:40:33;3.90;99.90
8676;DHT22;4375;52.486;13.424;2023-11-21T14:43:02;3.80;99.90
8676;DHT22;4375;52.486;13.424;2023-11-21T14:45:28;3.80;99.90
8676;DHT22;4375;52.486;13.424;2023-11-21T14:47:55;3.80;99.90
8676;DHT22;4375;52.486;13.424;2023-11-21T14:50:30;3.80;99.90
8676;DHT22;4375;52.486;13.424;2023-11-21T14:53:04;3.70;99.90
8676;DHT22;4375;52.486;13.424;2023-11-21T14:55:35;3.70;99.90
8676;DHT22;4375;52.486;13.424;2023-11-21T14:58:03;3.60;99.90
8676;DHT22;4375;52.486;13.424;2023-11-21T15:00:29;3.60;99.90
8676;DHT22;4375;52.486;13.424;2023-11-21T15:03:02;3.60;99.90
8676;DHT22;4375;52.486;13.424;2023-11-21T15:05:27;3.70;99.90
8676;DHT22;4375;52.486;13.424;2023-11-21T15:07:54;3.70;99.90
8676;DHT22;4375;52.486;13.424;2023-11-21T15:10:34;3.60;99.90
8676;DHT22;4375;52.486;13.424;2023-11-21T15:13:19;3.60;99.90
8676;DHT22;4375;52.486;13.424;2023-11-21T15:15:45;3.50;99.90
8676;DHT22;4375;52.486;13.424;2023-11-21T15:18:11;3.50;99.90
8676;DHT22;4375;52.486;13.424;2023-11-21T15:20:41;3.50;99.90
8676;DHT22;4375;52.486;13.424;2023-11-21T15:23:07;3.40;99.90
8676;DHT22;4375;52.486;13.424;2023-11-21T15:25:34;3.50;99.90
8676;DHT22;4375;52.486;13.424;2023-11-21T15:28:01;3.50;99.90
8676;DHT22;4375;52.486;13.424;2023-11-21T15:30:26;3.60;99.90
8676;DHT22;4375;52.486;13.424;2023-11-21T15:32:52;3.60;99.90
8676;DHT22;4375;52.486;13.424;2023-11-21T15:35:20;3.60;99.90
8676;DHT22;4375;52.486;13.424;2023-11-21T15:37:46;3.60;99.90
8676;DHT22;4375;52.486;13.424;2023-11-21T15:40:12;3.60;99.90
8676;DHT22;4375;52.486;13.424;2023-11-21T15:42:40;3.50;99.90
8676;DHT22;4375;52.486;13.424;2023-11-21T15:45:06;3.60;99.90
8676;DHT22;4375;52.486;13.424;2023-11-21T15:47:34;3.50;99.90
8676;DHT22;4375;52.486;13.424;2023-11-21T15:50:00;3.60;99.90
8676;DHT22;4375;52.486;13.424;2023-11-21T15:52:26;3.60;99.90
8676;DHT22;4375;52.486;13.424;2023-11-21T15:54:54;3.50;99.90
8676;DHT22;4375;52.486;13.424;2023-11-21T15:57:19;3.50;99.90
8676;DHT22;4375;52.486;13.424;2023-11-21T15:59:47;3.50;99.90
8676;DHT22;4375;52.486;13.424;2023-11-21T16:02:13;3.40;99.90
8676;DHT22;4375;52.486;13.424;2023-11-21T16:04:41;3.50;99.90
8676;DHT22;4375;52.486;13.424;2023-11-21T16:07:10;3.50;99.90
8676;DHT22;4375;52.486;13.424;2023-11-21T16:09:36;3.50;99.90
8676;DHT22;4375;52.486;13.424;2023-11-21T16:12:05;3.50;99.90
8676;DHT22;4375;52.486;13.424;2023-11-21T16:14:35;3.40;99.90
8676;DHT22;4375;52.486;13.424;2023-11-21T16:17:08;3.40;99.90
8676;DHT22;4375;52.486;13.424;2023-11-21T16:19:35;3.50;99.90